Time;durP1;ratioP1;P1;durP2;ratioP2;P2;SDS_P1;SDS_P2;PMS_P1;PMS_P2;Temp;Humidity;BMP_temperature;BMP_pressure;BME280_temperature;BME280_humidity;BME280_pressure;Samples;Min_cycle;Max_cycle;Signal;HPM_P1;HPM_P2
2022/10/09 00:01:02;;;;;;;8.70;2.08;;;;;;;10.57;100.00;100980.94;5012699;28;20054;-87
2022/10/09 00:03:28;;;;;;;7.47;1.70;;;;;;;10.54;100.00;100961.88;4995881;28;20064;-87
2022/10/09 00:05:55;;;;;;;8.70;2.20;;;;;;;10.25;100.00;100942.72;4994498;28;20053;-87
2022/10/09 00:08:22;;;;;;;10.48;2.40;;;;;;;10.24;100.00;100925.31;4993884;28;20065;-87
2022/10/09 00:10:49;;;;;;;7.45;1.50;;;;;;;10.29;100.00;100909.44;4991184;28;20107;-87
2022/10/09 00:13:15;;;;;;;5.70;1.75;;;;;;;10.59;100.00;100950.34;4995555;28;20096;-87
2022/10/09 00:15:44;;;;;;;6.65;2.20;;;;;;;10.27;100.00;100889.44;4993543;28;20412;-87
2022/10/09 00:18:13;;;;;;;6.60;1.83;;;;;;;10.49;100.00;100935.84;4993111;28;20108;-87
2022/10/09 00:20:42;;;;;;;7.45;1.60;;;;;;;10.59;100.00;100946.88;4989012;28;20486;-87
2022/10/09 00:23:13;;;;;;;6.03;1.50;;;;;;;10.59;100.00;100926.78;4993621;28;20401;-87
2022/10/09 00:25:52;;;;;;;8.23;1.80;;;;;;;10.72;100.00;100939.44;5013128;28;20472;-87
2022/10/09 00:28:21;;;;;;;9.65;2.20;;;;;;;10.67;100.00;100931.72;4989086;28;20108;-87
2022/10/09 00:30:48;;;;;;;9.02;2.65;;;;;;;10.30;100.00;100896.31;4995117;28;20050;-87
2022/10/09 00:33:15;;;;;;;6.28;2.13;;;;;;;10.33;100.00;100861.38;4990040;28;20137;-86
2022/10/09 00:35:42;;;;;;;9.02;2.30;;;;;;;10.53;100.00;100898.16;4994535;28;20041;-87
2022/10/09 00:38:09;;;;;;;8.52;1.92;;;;;;;10.68;100.00;100928.22;5010551;28;20455;-86
2022/10/09 00:40:37;;;;;;;5.00;1.50;;;;;;;10.39;100.00;100888.19;5012062;28;20136;-87
2022/10/09 00:43:12;;;;;;;13.90;2.25;;;;;;;10.55;100.00;100887.66;4994854;28;20053;-87
2022/10/09 00:45:44;;;;;;;10.70;2.00;;;;;;;10.79;100.00;100933.91;5010512;28;20472;-87
2022/10/09 00:48:11;;;;;;;6.80;1.92;;;;;;;10.24;100.00;100838.97;4993029;28;20104;-87
2022/10/09 00:50:43;;;;;;;9.45;2.00;;;;;;;10.89;100.00;100913.50;4994417;28;20054;-87
2022/10/09 00:53:14;;;;;;;6.38;2.08;;;;;;;10.79;100.00;100899.03;4989499;28;20054;-87
2022/10/09 00:55:42;;;;;;;8.05;2.25;;;;;;;10.68;100.00;100902.03;4987492;28;20049;-87
2022/10/09 00:58:11;;;;;;;9.40;2.40;;;;;;;10.74;100.00;100909.66;4994642;28;20140;-87
2022/10/09 01:00:39;;;;;;;10.13;2.83;;;;;;;10.78;100.00;100897.31;4989787;28;20050;-87
2022/10/09 01:03:06;;;;;;;11.88;2.88;;;;;;;10.76;100.00;100879.00;4994744;28;20053;-87
2022/10/09 01:05:58;;;;;;;8.35;2.58;;;;;;;10.52;100.00;100848.50;4989031;28;20050;-86
2022/10/09 01:08:33;;;;;;;7.93;2.90;;;;;;;10.35;100.00;100820.28;5010080;28;20107;-86
2022/10/09 01:11:16;;;;;;;8.90;2.20;;;;;;;10.52;100.00;100824.94;4987534;28;20054;-86
2022/10/09 01:13:43;;;;;;;10.00;2.20;;;;;;;10.71;100.00;100848.69;4985848;28;20477;-87
2022/10/09 01:16:20;;;;;;;8.40;2.38;;;;;;;10.35;100.00;100802.81;5009441;28;20105;-87
2022/10/09 01:19:00;;;;;;;9.95;2.60;;;;;;;10.65;100.00;100841.91;4991697;28;20492;-87
2022/10/09 01:21:51;;;;;;;8.70;2.17;;;;;;;10.42;100.00;100821.78;5005437;28;20050;-87
2022/10/09 01:24:47;;;;;;;12.45;2.60;;;;;;;10.81;100.00;100845.66;5000188;28;20062;-86
2022/10/09 01:27:20;;;;;;;10.63;2.15;;;;;;;10.57;100.00;100812.50;4986984;28;20050;-86
2022/10/09 01:29:48;;;;;;;;;;;;;;;11.07;100.00;100848.25;4990759;28;20096;-87
2022/10/09 01:32:18;;;;;;;11.63;2.42;;;;;;;10.70;100.00;100816.41;4990141;28;20588;-87
2022/10/09 01:34:46;;;;;;;7.80;2.40;;;;;;;10.39;100.00;100782.63;5009410;28;20057;-86
2022/10/09 01:37:16;;;;;;;13.40;3.53;;;;;;;10.36;100.00;100798.47;4993067;28;20058;-86
2022/10/09 01:39:45;;;;;;;7.28;2.13;;;;;;;10.57;100.00;100815.13;4984058;28;20051;-86
2022/10/09 01:42:13;;;;;;;8.23;2.08;;;;;;;10.63;100.00;100807.91;4988243;28;20550;-86
2022/10/09 01:44:41;;;;;;;8.75;2.60;;;;;;;10.56;100.00;100795.97;5008732;28;20134;-86
2022/10/09 01:47:15;;;;;;;10.05;2.72;;;;;;;10.67;100.00;100832.22;4994289;28;20046;-87
2022/10/09 01:50:23;;;;;;;6.90;1.83;;;;;;;10.62;100.00;100800.09;4993295;28;20057;-86
2022/10/09 01:52:54;;;;;;;10.52;2.38;;;;;;;10.63;100.00;100805.28;4993303;28;20057;-86
2022/10/09 01:55:27;;;;;;;5.75;1.83;;;;;;;10.85;100.00;100812.34;4989723;28;20058;-86
2022/10/09 01:58:14;;;;;;;15.35;2.80;;;;;;;10.71;100.00;100797.19;4993763;28;20057;-87
2022/10/09 02:00:47;;;;;;;6.53;1.90;;;;;;;10.49;100.00;100744.72;4988707;28;20052;-86
2022/10/09 02:03:15;;;;;;;12.80;2.20;;;;;;;11.03;100.00;100792.47;4991965;28;20664;-86
2022/10/09 02:05:46;;;;;;;9.45;2.55;;;;;;;10.52;100.00;100733.31;5005969;28;20054;-86
2022/10/09 02:08:17;;;;;;;11.40;2.20;;;;;;;10.64;100.00;100748.53;4993094;28;20112;-86
2022/10/09 02:10:47;;;;;;;9.80;2.00;;;;;;;10.57;100.00;100747.06;5006375;28;20054;-87
2022/10/09 02:13:13;;;;;;;8.50;2.13;;;;;;;10.47;100.00;100695.97;4993854;28;20054;-86
2022/10/09 02:15:47;;;;;;;12.45;2.10;;;;;;;10.85;100.00;100738.16;5008328;28;20120;-87
2022/10/09 02:18:14;;;;;;;;;;;;;;;10.86;100.00;100743.34;4996555;28;20049;-86
2022/10/09 02:20:47;;;;;;;14.98;3.92;;;;;;;10.91;100.00;100725.69;5013067;28;19976;-87
2022/10/09 02:23:15;;;;;;;11.50;3.25;;;;;;;10.79;100.00;100736.63;4997541;28;20111;-86
2022/10/09 02:25:42;;;;;;;7.07;2.00;;;;;;;10.72;100.00;100708.97;5012905;28;20050;-86
2022/10/09 02:28:10;;;;;;;10.88;2.08;;;;;;;10.82;100.00;100707.72;5014284;28;20080;-86
2022/10/09 02:31:02;;;;;;;9.35;2.60;;;;;;;10.82;100.00;100718.19;4992131;28;20109;-87
2022/10/09 02:33:31;;;;;;;10.98;3.05;;;;;;;10.74;100.00;100701.91;4995388;28;20533;-86
2022/10/09 02:35:59;;;;;;;14.18;2.63;;;;;;;10.78;100.00;100683.41;4987728;28;20097;-87
2022/10/09 02:38:25;;;;;;;11.57;2.45;;;;;;;10.72;100.00;100664.47;4990398;28;20116;-87
2022/10/09 02:40:56;;;;;;;13.25;3.38;;;;;;;10.72;100.00;100683.63;4994988;28;20046;-86
2022/10/09 02:43:23;;;;;;;9.73;2.90;;;;;;;10.59;100.00;100667.56;5010301;28;20104;-86
2022/10/09 02:45:50;;;;;;;15.82;2.63;;;;;;;10.27;100.00;100648.66;4995907;28;20054;-87
2022/10/09 02:48:17;;;;;;;14.60;2.78;;;;;;;10.50;100.00;100662.69;5011445;28;20054;-87
2022/10/09 02:50:43;;;;;;;10.15;2.28;;;;;;;10.70;100.00;100658.44;4994647;28;20100;-87
2022/10/09 02:53:10;;;;;;;12.40;2.40;;;;;;;10.64;100.00;100643.78;5013425;28;20058;-87
2022/10/09 02:55:37;;;;;;;11.45;2.60;;;;;;;10.49;100.00;100637.41;4994098;28;20052;-87
2022/10/09 02:58:03;;;;;;;12.82;2.55;;;;;;;10.76;100.00;100664.25;5013398;28;20053;-86
2022/10/09 03:00:30;;;;;;;11.73;2.13;;;;;;;10.25;100.00;100605.13;4993364;28;20053;-87
2022/10/09 03:02:57;;;;;;;11.82;2.40;;;;;;;10.51;100.00;100640.81;4997143;28;20065;-87
2022/10/09 03:05:24;;;;;;;11.90;2.28;;;;;;;10.52;100.00;100647.78;4992650;28;20191;-86
2022/10/09 03:07:51;;;;;;;10.15;1.90;;;;;;;10.45;100.00;100605.25;5011031;28;20480;-87
2022/10/09 03:10:19;;;;;;;12.95;2.30;;;;;;;10.45;100.00;100604.41;4993911;28;20066;-86
2022/10/09 03:12:46;;;;;;;8.13;2.00;;;;;;;10.72;100.00;100636.50;5009448;28;20050;-86
2022/10/09 03:15:16;;;;;;;7.00;2.05;;;;;;;10.44;100.00;100623.66;4992642;28;20049;-87
2022/10/09 03:17:43;;;;;;;7.80;2.50;;;;;;;10.60;100.00;100656.16;4995440;28;20038;-86
2022/10/09 03:20:10;;;;;;;11.90;2.72;;;;;;;10.56;100.00;100664.22;4993614;28;20049;-86
2022/10/09 03:22:37;;;;;;;21.83;2.92;;;;;;;10.31;100.00;100604.94;4987759;28;20057;-87
2022/10/09 03:25:04;;;;;;;10.70;2.47;;;;;;;10.53;100.00;100623.28;5010152;28;21015;-86
2022/10/09 03:27:33;;;;;;;11.32;2.63;;;;;;;10.57;100.00;100666.78;5010836;28;20057;-87
2022/10/09 03:30:04;;;;;;;13.40;2.40;;;;;;;10.55;100.00;100646.78;4989772;28;20053;-86
2022/10/09 03:32:31;;;;;;;9.60;2.90;;;;;;;10.47;100.00;100620.06;4995410;28;20640;-86
2022/10/09 03:34:57;;;;;;;12.20;3.03;;;;;;;10.43;100.00;100625.41;4996211;28;20459;-86
2022/10/09 03:37:24;;;;;;;15.65;2.78;;;;;;;10.53;100.00;100596.25;4996152;28;20053;-86
2022/10/09 03:39:51;;;;;;;9.35;2.15;;;;;;;10.63;100.00;100614.16;4987040;28;20109;-87
2022/10/09 03:42:17;;;;;;;14.77;2.78;;;;;;;10.63;100.00;100615.94;5004484;28;20500;-86
2022/10/09 03:44:44;;;;;;;9.68;2.05;;;;;;;10.82;100.00;100630.00;5000122;28;20046;-87
2022/10/09 03:47:11;;;;;;;7.97;2.88;;;;;;;10.68;100.00;100624.47;5007902;28;20108;-87
2022/10/09 03:49:37;;;;;;;12.82;2.17;;;;;;;10.82;100.00;100616.06;4993744;28;20050;-86
2022/10/09 03:52:04;;;;;;;7.55;1.80;;;;;;;10.86;100.00;100582.72;5011293;28;20064;-86
2022/10/09 03:54:31;;;;;;;14.80;2.35;;;;;;;11.01;100.00;100579.44;4980643;28;20052;-87
2022/10/09 03:56:57;;;;;;;11.40;2.63;;;;;;;11.07;100.00;100573.97;4989692;28;20050;-87
2022/10/09 03:59:24;;;;;;;13.82;2.10;;;;;;;11.10;100.00;100583.44;4997346;28;20488;-86
2022/10/09 04:01:51;;;;;;;12.77;2.28;;;;;;;11.17;100.00;100577.03;5004478;28;20108;-87
2022/10/09 04:04:18;;;;;;;14.60;3.00;;;;;;;11.27;100.00;100598.47;4999478;28;20097;-86
2022/10/09 04:06:45;;;;;;;13.00;3.50;;;;;;;11.18;100.00;100548.16;4978686;28;20049;-86
2022/10/09 04:09:11;;;;;;;12.23;2.15;;;;;;;11.16;100.00;100528.19;5013370;28;20559;-86
2022/10/09 04:11:38;;;;;;;13.98;2.28;;;;;;;11.56;100.00;100569.22;5003736;28;20412;-87
2022/10/09 04:14:05;;;;;;;14.77;3.22;;;;;;;11.55;100.00;100562.28;5012567;28;20057;-86
2022/10/09 04:16:31;;;;;;;17.63;2.80;;;;;;;11.27;100.00;100528.56;4991565;28;20050;-86
2022/10/09 04:18:58;;;;;;;12.40;2.72;;;;;;;11.55;100.00;100564.88;4990162;28;20104;-85
2022/10/09 04:21:25;;;;;;;21.33;3.10;;;;;;;11.34;100.00;100553.56;4990966;28;20101;-87
2022/10/09 04:23:53;;;;;;;14.93;2.95;;;;;;;11.53;100.00;100581.63;4995916;28;20480;-86
2022/10/09 04:26:19;;;;;;;14.38;3.70;;;;;;;11.33;100.00;100567.63;4995326;28;20054;-86
2022/10/09 04:28:46;;;;;;;9.45;2.53;;;;;;;11.47;100.00;100568.78;4981669;28;20050;-87
2022/10/09 04:31:13;;;;;;;10.27;2.55;;;;;;;11.66;100.00;100555.69;4995515;28;20508;-86
2022/10/09 04:33:40;;;;;;;15.23;2.75;;;;;;;11.82;100.00;100572.44;5012981;28;20105;-86
2022/10/09 04:36:06;;;;;;;14.05;2.28;;;;;;;11.73;100.00;100571.06;4989726;28;20054;-86
2022/10/09 04:38:33;;;;;;;15.48;2.80;;;;;;;11.55;100.00;100550.94;4993362;28;20435;-86
2022/10/09 04:41:03;;;;;;;11.05;2.55;;;;;;;11.68;100.00;100559.09;5009757;28;20498;-86
2022/10/09 04:43:30;;;;;;;10.52;2.13;;;;;;;11.70;100.00;100555.47;5001053;28;20050;-87
2022/10/09 04:45:56;;;;;;;12.95;2.45;;;;;;;12.02;100.00;100568.91;4991330;28;20105;-87
2022/10/09 04:48:24;;;;;;;13.68;2.35;;;;;;;11.93;100.00;100541.38;4992016;28;20133;-86
2022/10/09 04:50:50;;;;;;;10.63;2.00;;;;;;;12.10;100.00;100568.59;4989914;28;20104;-86
2022/10/09 04:53:17;;;;;;;10.77;2.72;;;;;;;12.02;100.00;100541.84;5012337;28;20045;-86
2022/10/09 04:55:44;;;;;;;10.77;2.15;;;;;;;11.95;100.00;100554.38;5001984;28;20105;-85
2022/10/09 04:58:12;;;;;;;12.55;2.63;;;;;;;11.68;100.00;100549.44;4995370;28;20428;-86
2022/10/09 05:00:41;;;;;;;12.23;2.50;;;;;;;11.64;100.00;100536.56;5012698;28;20136;-87
2022/10/09 05:03:09;;;;;;;16.08;3.00;;;;;;;11.73;100.00;100565.84;4981512;28;20424;-86
2022/10/09 05:05:36;;;;;;;17.83;2.22;;;;;;;11.93;100.00;100538.75;5002156;28;20112;-86
2022/10/09 05:08:03;;;;;;;13.57;2.20;;;;;;;11.76;100.00;100522.91;5008590;28;20046;-87
2022/10/09 05:10:31;;;;;;;15.20;3.20;;;;;;;11.47;100.00;100484.88;4993479;28;20116;-86
2022/10/09 05:12:58;;;;;;;15.57;3.45;;;;;;;11.59;100.00;100477.28;4994525;28;20116;-86
2022/10/09 05:15:25;;;;;;;15.70;2.40;;;;;;;11.78;100.00;100513.19;4994360;28;20639;-86
2022/10/09 05:17:52;;;;;;;13.57;2.33;;;;;;;11.77;100.00;100514.97;5003634;28;20053;-86
2022/10/09 05:20:19;;;;;;;15.10;2.40;;;;;;;11.58;100.00;100480.84;4997732;28;20488;-86
2022/10/09 05:22:46;;;;;;;12.13;2.42;;;;;;;11.49;100.00;100457.69;4977490;28;20051;-86
2022/10/09 05:25:13;;;;;;;15.13;3.90;;;;;;;11.72;100.00;100500.34;4988894;28;20570;-87
2022/10/09 05:27:40;;;;;;;15.70;3.65;;;;;;;11.47;100.00;100464.75;5003730;28;20477;-86
2022/10/09 05:30:08;;;;;;;12.93;2.30;;;;;;;11.51;100.00;100458.47;4994182;28;20050;-87
2022/10/09 05:32:35;;;;;;;9.23;2.53;;;;;;;11.43;100.00;100449.25;4994058;28;20097;-86
2022/10/09 05:35:03;;;;;;;8.70;2.33;;;;;;;11.71;100.00;100475.03;5008410;28;20045;-86
2022/10/09 05:37:30;;;;;;;14.43;2.67;;;;;;;11.63;100.00;100471.91;4992201;28;20046;-86
2022/10/09 05:39:56;;;;;;;15.05;2.78;;;;;;;11.65;100.00;100470.94;4988137;28;20066;-87
2022/10/09 05:42:23;;;;;;;12.63;2.40;;;;;;;11.74;100.00;100457.38;4986306;28;20046;-86
2022/10/09 05:44:50;;;;;;;15.60;2.22;;;;;;;11.88;100.00;100456.75;4992278;28;20046;-86
2022/10/09 05:47:18;;;;;;;14.90;2.53;;;;;;;11.53;100.00;100440.03;4987368;28;20050;-86
2022/10/09 05:49:48;;;;;;;18.55;2.67;;;;;;;11.34;100.00;100403.31;4990772;28;20100;-86
2022/10/09 05:52:14;;;;;;;9.23;2.35;;;;;;;11.83;100.00;100450.00;4991001;28;20053;-86
2022/10/09 05:54:41;;;;;;;16.30;2.28;;;;;;;11.80;100.00;100432.63;5005641;28;20631;-86
2022/10/09 05:57:08;;;;;;;12.82;2.58;;;;;;;12.11;100.00;100470.53;5011615;28;20096;-86
2022/10/09 05:59:35;;;;;;;11.70;2.72;;;;;;;11.70;100.00;100418.25;5012018;28;20100;-86
2022/10/09 06:02:02;;;;;;;11.73;2.30;;;;;;;11.93;100.00;100438.16;4995470;28;20054;-86
2022/10/09 06:04:29;;;;;;;10.43;1.98;;;;;;;12.04;100.00;100435.91;4995915;28;20045;-86
2022/10/09 06:06:56;;;;;;;14.05;2.67;;;;;;;12.25;100.00;100470.75;5013250;28;20065;-87
2022/10/09 06:09:24;;;;;;;13.68;2.78;;;;;;;12.26;100.00;100464.56;4992954;28;20516;-86
2022/10/09 06:11:53;;;;;;;11.52;2.28;;;;;;;12.00;100.00;100460.56;4994613;28;20042;-86
2022/10/09 06:14:23;;;;;;;16.55;3.25;;;;;;;11.88;100.00;100427.00;5012988;28;20045;-84
2022/10/09 06:16:50;;;;;;;13.48;2.95;;;;;;;12.04;100.00;100459.53;5012297;28;20050;-85
2022/10/09 06:19:18;;;;;;;8.98;2.22;;;;;;;12.15;100.00;100454.59;5014019;28;20137;-86
2022/10/09 06:21:46;;;;;;;13.80;2.15;;;;;;;12.01;100.00;100409.81;5013064;28;20049;-86
2022/10/09 06:24:20;;;;;;;9.43;2.20;;;;;;;11.81;100.00;100416.00;5013767;28;20057;-85
2022/10/09 06:26:53;;;;;;;10.60;2.28;;;;;;;11.80;100.00;100380.19;4996553;28;20053;-86
2022/10/09 06:29:20;;;;;;;11.55;2.22;;;;;;;12.03;100.00;100423.69;5008847;28;20057;-86
2022/10/09 06:31:47;;;;;;;9.65;1.90;;;;;;;12.37;100.00;100431.69;4989643;28;20038;-85
2022/10/09 06:34:14;;;;;;;7.50;1.90;;;;;;;12.22;100.00;100423.66;4996580;28;20054;-86
2022/10/09 06:36:40;;;;;;;7.90;1.55;;;;;;;12.15;100.00;100399.47;4991025;28;20049;-85
2022/10/09 06:39:09;;;;;;;9.45;2.00;;;;;;;12.46;100.00;100431.22;4996135;28;20046;-86
2022/10/09 06:41:35;;;;;;;7.97;1.88;;;;;;;12.07;100.00;100400.78;5009500;28;20045;-85
2022/10/09 06:44:07;;;;;;;8.15;1.60;;;;;;;11.84;100.00;100362.50;5009617;28;20053;-85
2022/10/09 06:46:40;;;;;;;10.13;2.50;;;;;;;11.90;100.00;100355.22;5013744;28;20514;-86
2022/10/09 06:49:08;;;;;;;9.57;1.70;;;;;;;12.30;100.00;100413.59;5012689;28;20048;-82
2022/10/09 06:51:35;;;;;;;7.97;1.92;;;;;;;12.24;100.00;100376.34;4993748;28;20045;-84
2022/10/09 06:54:09;;;;;;;11.85;1.98;;;;;;;12.40;100.00;100421.88;5014314;28;20054;-85
2022/10/09 06:56:36;;;;;;;7.55;2.20;;;;;;;12.20;100.00;100375.63;4995771;28;20057;-86
2022/10/09 06:59:04;;;;;;;8.70;1.77;;;;;;;12.34;100.00;100406.41;4996769;28;20058;-82
2022/10/09 07:01:32;;;;;;;11.85;2.13;;;;;;;11.95;100.00;100334.00;5013038;28;20084;-85
2022/10/09 07:04:12;;;;;;;13.50;1.98;;;;;;;12.63;100.00;100404.94;4997860;28;20049;-86
2022/10/09 07:06:40;;;;;;;12.90;2.67;;;;;;;12.29;100.00;100359.41;4990593;28;20046;-86
2022/10/09 07:09:12;;;;;;;18.20;2.90;;;;;;;12.27;100.00;100378.78;5014904;28;20053;-87
2022/10/09 07:11:41;;;;;;;14.27;2.80;;;;;;;12.44;100.00;100356.94;5014662;28;20403;-86
2022/10/09 07:14:10;;;;;;;17.35;3.78;;;;;;;12.42;100.00;100357.00;4993753;28;20100;-86
2022/10/09 07:16:39;;;;;;;18.45;2.88;;;;;;;12.41;100.00;100336.94;4994945;28;20050;-86
2022/10/09 07:19:09;;;;;;;17.15;3.40;;;;;;;12.50;100.00;100352.22;4994746;28;20049;-87
2022/10/09 07:21:38;;;;;;;14.45;3.30;;;;;;;12.20;100.00;100285.53;4996077;28;20056;-85
2022/10/09 07:24:06;;;;;;;20.40;3.60;;;;;;;12.49;100.00;100353.13;4996056;28;20140;-86
2022/10/09 07:26:35;;;;;;;17.33;4.38;;;;;;;12.79;100.00;100362.97;5005018;28;20452;-86
2022/10/09 07:29:04;;;;;;;15.40;3.40;;;;;;;12.84;100.00;100345.19;4996820;28;20058;-87
2022/10/09 07:31:31;;;;;;;14.35;3.47;;;;;;;12.87;100.00;100334.53;4993239;28;20057;-83
2022/10/09 07:33:58;;;;;;;20.38;4.75;;;;;;;12.44;100.00;100267.66;5014144;28;20131;-86
2022/10/09 07:36:25;;;;;;;18.05;3.03;;;;;;;12.70;100.00;100296.00;4997200;28;20718;-88
2022/10/09 07:38:54;;;;;;;19.33;3.67;;;;;;;12.44;100.00;100265.03;4991345;28;20108;-87
2022/10/09 07:41:24;;;;;;;17.15;3.92;;;;;;;12.82;100.00;100299.78;4996833;28;20045;-88
2022/10/09 07:43:52;;;;;;;19.23;3.83;;;;;;;12.65;100.00;100261.25;4994790;28;20575;-87
2022/10/09 07:46:21;;;;;;;12.70;2.33;;;;;;;12.43;100.00;100227.44;5013494;28;20053;-87
2022/10/09 07:48:48;;;;;;;12.90;2.63;;;;;;;12.77;100.00;100288.66;4997728;28;20137;-89
2022/10/09 07:51:27;;;;;;;14.30;3.42;;;;;;;12.57;100.00;100252.09;5014662;28;20054;-88
2022/10/09 07:53:56;;;;;;;12.65;2.53;;;;;;;12.79;100.00;100296.47;5013780;28;20054;-87
2022/10/09 07:56:31;;;;;;;15.85;2.47;;;;;;;12.65;100.00;100279.66;4996664;28;20057;-87
2022/10/09 07:59:00;;;;;;;12.95;2.10;;;;;;;12.76;100.00;100321.09;4994061;28;20042;-87
2022/10/09 08:01:28;;;;;;;12.55;1.92;;;;;;;12.42;100.00;100259.03;4995962;28;20046;-88
2022/10/09 08:03:56;;;;;;;7.93;1.98;;;;;;;12.58;100.00;100280.06;4991444;28;20050;-88
2022/10/09 08:06:23;;;;;;;10.02;1.83;;;;;;;12.66;100.00;100297.13;5010731;28;20053;-87
2022/10/09 08:08:52;;;;;;;9.80;2.13;;;;;;;12.37;100.00;100264.50;4993560;28;20075;-88
2022/10/09 08:11:20;;;;;;;6.15;1.50;;;;;;;12.81;100.00;100307.72;4991799;28;20104;-87
2022/10/09 08:13:49;;;;;;;7.75;1.58;;;;;;;12.51;100.00;100263.78;4988463;28;20050;-87
2022/10/09 08:16:17;;;;;;;9.43;1.80;;;;;;;12.82;100.00;100309.41;4995767;28;20045;-86
2022/10/09 08:18:44;;;;;;;8.27;2.22;;;;;;;12.54;100.00;100279.38;4996018;28;20050;-89
2022/10/09 08:21:14;;;;;;;11.25;2.00;;;;;;;12.79;100.00;100296.47;4994308;28;20054;-83
2022/10/09 08:23:41;;;;;;;9.68;1.85;;;;;;;12.64;100.00;100271.84;5002647;28;20077;-87
2022/10/09 08:26:16;;;;;;;8.55;1.65;;;;;;;12.58;100.00;100244.13;4988729;28;20054;-88
2022/10/09 08:28:48;;;;;;;9.27;1.70;;;;;;;13.08;100.00;100284.34;4994100;28;20050;-86
2022/10/09 08:31:16;;;;;;;12.85;1.83;;;;;;;13.46;100.00;100307.69;4995197;28;20057;-86
2022/10/09 08:33:43;;;;;;;16.00;2.83;;;;;;;13.07;100.00;100280.88;4990654;28;20058;-87
2022/10/09 08:36:14;;;;;;;10.07;2.38;;;;;;;12.93;100.00;100251.03;4992421;28;20101;-88
2022/10/09 08:38:41;;;;;;;14.05;2.13;;;;;;;13.11;100.00;100234.25;5008131;28;20472;-87
2022/10/09 08:41:25;;;;;;;11.82;1.88;;;;;;;13.54;100.00;100304.63;4991594;28;20057;-87
2022/10/09 08:44:03;;;;;;;8.77;1.75;;;;;;;13.48;100.00;100264.59;4994828;28;20484;-87
2022/10/09 08:46:33;;;;;;;11.65;2.92;;;;;;;13.72;100.00;100305.34;4991310;28;20107;-87
2022/10/09 08:49:03;;;;;;;8.25;1.88;;;;;;;13.71;100.00;100272.09;4988911;28;20047;-87
2022/10/09 08:51:37;;;;;;;13.77;2.83;;;;;;;13.54;100.00;100255.50;5006528;28;20562;-87
2022/10/09 08:54:03;;;;;;;8.35;1.88;;;;;;;13.97;100.00;100292.47;4981979;28;20488;-87
2022/10/09 08:56:33;;;;;;;11.38;2.15;;;;;;;13.97;100.00;100274.06;4977541;28;20480;-88
2022/10/09 08:59:01;;;;;;;11.95;3.00;;;;;;;13.50;100.00;100230.31;4984336;28;20054;-88
2022/10/09 09:01:43;;;;;;;15.85;2.65;;;;;;;13.93;100.00;100277.78;5005807;28;20050;-87
2022/10/09 09:04:35;;;;;;;16.73;3.47;;;;;;;13.93;100.00;100274.31;4995695;28;20495;-87
2022/10/09 09:07:18;;;;;;;21.83;3.30;;;;;;;13.82;100.00;100265.25;5009020;28;20045;-88
2022/10/09 09:09:58;;;;;;;12.52;2.33;;;;;;;13.64;100.00;100221.63;4979966;28;20046;-87
2022/10/09 09:12:51;;;;;;;11.75;3.28;;;;;;;13.86;100.00;100274.69;4998893;28;20069;-87
2022/10/09 09:15:43;;;;;;;14.13;2.40;;;;;;;13.64;100.00;100217.19;4989028;28;20046;-86
2022/10/09 09:18:36;;;;;;;16.73;3.47;;;;;;;13.94;100.00;100271.59;5004874;28;20044;-87
2022/10/09 09:21:16;;;;;;;16.88;2.63;;;;;;;13.79;100.00;100236.50;4985346;28;20393;-87
2022/10/09 09:23:46;;;;;;;14.23;2.58;;;;;;;13.85;100.00;100228.25;5011137;28;20062;-87
2022/10/09 09:26:20;;;;;;;11.38;2.45;;;;;;;14.11;100.00;100243.41;4986798;28;20046;-86
2022/10/09 09:28:51;;;;;;;12.48;2.75;;;;;;;13.88;100.00;100208.78;4993407;28;20046;-88
2022/10/09 09:31:24;;;;;;;13.20;2.83;;;;;;;14.05;100.00;100234.94;4994684;28;20046;-87
2022/10/09 09:34:13;;;;;;;15.20;3.00;;;;;;;14.01;100.00;100224.72;4987334;28;20077;-87
2022/10/09 09:37:01;;;;;;;15.73;2.85;;;;;;;13.97;100.00;100183.69;4993960;28;20654;-87
2022/10/09 09:39:32;;;;;;;16.30;3.13;;;;;;;13.88;100.00;100195.63;4989024;28;20042;-87
2022/10/09 09:42:20;;;;;;;13.20;2.72;;;;;;;14.21;100.00;100208.53;4985560;28;20139;-87
2022/10/09 09:44:56;;;;;;;14.88;3.15;;;;;;;14.20;100.00;100229.69;4988425;28;20046;-87
2022/10/09 09:47:31;;;;;;;17.60;2.97;;;;;;;13.78;100.00;100176.91;4999904;28;20053;-87
2022/10/09 09:50:06;;;;;;;18.33;3.63;;;;;;;14.08;100.00;100197.06;4991523;28;20057;-87
2022/10/09 11:09:48;;;;;;;17.98;3.20;;;;;;;13.96;100.00;100026.75;5005407;28;20052;-86
2022/10/09 11:12:35;;;;;;;22.85;3.83;;;;;;;13.86;100.00;100034.34;5007601;28;20739;-86
2022/10/09 11:15:15;;;;;;;20.67;3.40;;;;;;;13.50;100.00;99963.84;4997361;28;20054;-86
2022/10/09 11:18:06;;;;;;;17.90;3.85;;;;;;;13.61;100.00;99972.75;4995128;28;20108;-86
2022/10/09 11:20:51;;;;;;;16.23;3.05;;;;;;;14.07;100.00;99992.69;4991514;28;20472;-86
2022/10/09 11:23:36;;;;;;;17.63;3.90;;;;;;;13.93;100.00;99943.56;5009824;28;20080;-89
2022/10/09 11:26:10;;;;;;;20.27;3.40;;;;;;;13.93;100.00;99940.09;5005533;28;20074;-88
2022/10/09 11:28:47;;;;;;;19.00;3.85;;;;;;;13.91;100.00;99932.28;4995206;28;20097;-87
2022/10/09 11:31:29;;;;;;;13.65;2.75;;;;;;;13.67;100.00;99929.44;4982779;28;20054;-88
2022/10/09 11:34:08;;;;;;;13.13;3.58;;;;;;;13.81;100.00;99968.00;4983798;28;20547;-86
2022/10/09 11:36:41;;;;;;;17.83;3.55;;;;;;;14.12;100.00;100014.28;5011357;28;20451;-87
2022/10/09 11:39:17;;;;;;;13.55;3.15;;;;;;;13.76;100.00;99949.91;4980946;28;20104;-88
2022/10/09 11:41:46;;;;;;;20.98;4.47;;;;;;;14.10;100.00;100000.38;5001032;28;20104;-87
2022/10/09 11:44:13;;;;;;;15.18;3.17;;;;;;;14.04;100.00;100001.63;5010456;28;20443;-88
2022/10/09 11:46:43;;;;;;;14.32;3.67;;;;;;;14.05;100.00;100023.53;4998348;28;20042;-87
2022/10/09 11:49:33;;;;;;;14.68;2.83;;;;;;;14.16;100.00;100014.94;4996467;28;20180;-86
2022/10/09 11:52:34;;;;;;;17.35;3.28;;;;;;;14.22;100.00;100011.94;5003183;28;20087;-85
2022/10/09 11:55:16;;;;;;;15.60;3.60;;;;;;;14.32;100.00;100004.25;4992880;28;20530;-86
2022/10/09 11:57:43;;;;;;;15.75;3.53;;;;;;;14.21;100.00;100011.06;5010237;28;20050;-84
2022/10/09 12:00:10;;;;;;;18.27;3.28;;;;;;;14.26;100.00;100015.22;4989027;28;20128;-84
2022/10/09 12:02:37;;;;;;;20.90;3.78;;;;;;;14.34;100.00;100005.00;4993888;28;20787;-85
2022/10/09 12:05:31;;;;;;;16.27;4.13;;;;;;;14.23;100.00;99976.75;5007571;28;20057;-85
2022/10/09 12:08:09;;;;;;;;;;;;;;;14.40;100.00;99991.44;5009498;28;20077;-86
2022/10/09 12:10:56;;;;;;;20.05;3.92;;;;;;;14.20;100.00;99990.97;4990914;28;20008;-85
2022/10/09 12:13:40;;;;;;;14.80;3.58;;;;;;;13.99;100.00;99924.75;5007796;28;20054;-85
2022/10/09 12:16:27;;;;;;;17.20;3.60;;;;;;;14.02;100.00;99939.47;5009153;28;20053;-84
2022/10/09 12:18:55;;;;;;;15.98;3.63;;;;;;;14.16;100.00;99957.84;4992274;28;20100;-85
2022/10/09 12:21:26;;;;;;;16.73;3.80;;;;;;;14.22;100.00;99986.44;4994078;28;20049;-85
2022/10/09 12:23:54;;;;;;;15.82;3.67;;;;;;;14.03;100.00;99936.75;5012598;28;20066;-85
2022/10/09 12:26:23;;;;;;;18.73;3.13;;;;;;;14.02;100.00;99895.59;5010941;28;20045;-85
2022/10/09 12:28:55;;;;;;;21.02;3.50;;;;;;;14.37;100.00;99952.97;4993766;28;20096;-84
2022/10/09 12:31:35;;;;;;;19.88;3.83;;;;;;;14.12;100.00;99968.72;4990782;28;20495;-84
2022/10/09 12:34:21;;;;;;;15.98;3.15;;;;;;;14.15;100.00;99915.88;5008250;28;20060;-84
2022/10/09 12:36:48;;;;;;;27.20;4.88;;;;;;;14.10;100.00;99889.00;4992775;28;20061;-84
2022/10/09 12:39:18;;;;;;;18.15;4.13;;;;;;;14.27;100.00;99890.50;4990188;28;20046;-84
2022/10/09 12:41:47;;;;;;;17.08;3.95;;;;;;;14.50;100.00;99896.84;4993646;28;20054;-84
2022/10/09 12:44:32;;;;;;;14.05;3.42;;;;;;;14.41;100.00;99890.41;5009018;28;20412;-84
2022/10/09 12:47:04;;;;;;;22.23;4.50;;;;;;;14.05;100.00;99855.91;5009174;28;20395;-84